createdAt,value
2023-01-28T00:00:37.860Z,15.50
2023-01-28T00:03:23.226Z,17.75
2023-01-28T00:06:11.928Z,16.05
2023-01-28T00:08:57.565Z,18.25
2023-01-28T00:11:42.774Z,18.48
2023-01-28T00:14:28.257Z,21.63
2023-01-28T00:17:14.524Z,19.98
2023-01-28T00:19:59.960Z,17.02
2023-01-28T00:22:51.767Z,17.85
2023-01-28T00:25:37.162Z,16.47
2023-01-28T00:28:22.603Z,20.10
2023-01-28T00:31:09.881Z,18.65
2023-01-28T00:33:56.724Z,16.58
2023-01-28T00:36:42.261Z,19.48
2023-01-28T00:39:27.787Z,25.48
2023-01-28T00:42:12.793Z,17.00
2023-01-28T00:44:58.113Z,22.50
2023-01-28T00:47:45.095Z,17.60
2023-01-28T00:50:30.612Z,17.75
2023-01-28T00:53:15.885Z,21.17
2023-01-28T00:56:01.040Z,18.20
2023-01-28T00:58:47.066Z,21.20
2023-01-28T01:01:32.735Z,18.25
2023-01-28T01:04:26.491Z,16.50
2023-01-28T01:07:11.908Z,16.00
2023-01-28T01:09:58.413Z,23.67
2023-01-28T01:12:46.027Z,21.85
2023-01-28T01:15:31.553Z,21.10
2023-01-28T01:18:17.411Z,20.75
2023-01-28T01:21:07.185Z,18.50
2023-01-28T01:23:53.279Z,21.60
2023-01-28T01:26:38.710Z,23.67
2023-01-28T01:29:24.015Z,21.10
2023-01-28T01:32:09.563Z,22.92
2023-01-28T01:34:54.836Z,21.33
2023-01-28T01:37:40.071Z,18.90
2023-01-28T01:40:25.541Z,19.33
2023-01-28T01:43:19.108Z,22.75
2023-01-28T01:46:04.610Z,27.55
2023-01-28T01:48:50.486Z,25.63
2023-01-28T01:51:37.078Z,25.08
2023-01-28T01:54:25.740Z,26.95
2023-01-28T01:57:16.017Z,21.70
2023-01-28T02:00:06.337Z,23.33
2023-01-28T02:02:53.417Z,20.60
2023-01-28T02:05:39.837Z,19.45
2023-01-28T02:08:25.645Z,20.38
2023-01-28T02:11:11.857Z,20.73
2023-01-28T02:14:01.207Z,25.23
2023-01-28T02:16:46.661Z,19.27
2023-01-28T02:19:38.518Z,19.75
2023-01-28T02:22:26.686Z,19.52
2023-01-28T02:25:39.753Z,21.27
2023-01-28T02:28:32.939Z,20.98
2023-01-28T02:31:27.176Z,20.45
2023-01-28T02:34:29.584Z,21.75
2023-01-28T02:37:26.252Z,23.30
2023-01-28T02:40:22.370Z,21.75
2023-01-28T02:43:07.746Z,20.42
2023-01-28T02:46:11.691Z,19.27
2023-01-28T02:48:57.360Z,22.30
2023-01-28T02:52:02.119Z,19.23
2023-01-28T02:55:10.112Z,16.58
2023-01-28T02:58:14.917Z,16.45
2023-01-28T03:01:31.632Z,18.27
2023-01-28T03:04:35.852Z,18.60
2023-01-28T03:07:23.795Z,19.05
2023-01-28T03:10:14.041Z,19.90
2023-01-28T03:13:18.998Z,18.08
2023-01-28T03:16:23.088Z,18.92
2023-01-28T03:19:29.530Z,17.55
2023-01-28T03:22:33.937Z,15.75
2023-01-28T03:25:41.369Z,18.33
2023-01-28T03:28:48.373Z,21.23
2023-01-28T03:31:54.198Z,17.50
2023-01-28T03:34:59.211Z,17.13
2023-01-28T03:37:44.602Z,19.77
2023-01-28T03:40:29.988Z,18.38
2023-01-28T03:43:15.315Z,17.25
2023-01-28T03:46:00.695Z,15.77
2023-01-28T03:48:46.416Z,17.20
2023-01-28T03:51:31.497Z,15.10
2023-01-28T03:54:16.947Z,15.75
2023-01-28T03:57:02.440Z,17.23
2023-01-28T03:59:49.790Z,14.00
2023-01-28T04:02:35.458Z,12.80
2023-01-28T04:05:20.629Z,13.73
2023-01-28T04:08:05.935Z,14.07
2023-01-28T04:10:51.421Z,11.63
2023-01-28T04:13:36.727Z,14.45
2023-01-28T04:16:22.218Z,15.48
2023-01-28T04:19:07.580Z,15.02
2023-01-28T04:21:56.716Z,14.63
2023-01-28T04:24:41.859Z,14.35
2023-01-28T04:27:27.061Z,15.45
2023-01-28T04:30:12.608Z,13.70
2023-01-28T04:32:57.833Z,14.23
2023-01-28T04:35:43.237Z,12.43
2023-01-28T04:38:28.728Z,10.55
2023-01-28T04:41:14.198Z,15.57
2023-01-28T04:43:59.602Z,15.98
2023-01-28T04:46:45.012Z,12.35
2023-01-28T04:49:30.241Z,12.27
2023-01-28T04:52:15.855Z,9.52
2023-01-28T04:55:01.180Z,13.93
2023-01-28T04:57:50.901Z,12.27
2023-01-28T05:00:36.407Z,9.27
2023-01-28T05:03:21.500Z,13.50
2023-01-28T05:06:07.147Z,12.02
2023-01-28T05:08:52.148Z,10.05
2023-01-28T05:11:39.228Z,9.23
2023-01-28T05:14:24.851Z,7.05
2023-01-28T05:17:10.376Z,6.57
2023-01-28T05:19:55.995Z,5.00
2023-01-28T05:22:42.397Z,5.70
2023-01-28T05:25:27.802Z,6.22
2023-01-28T05:28:13.200Z,5.93
2023-01-28T05:31:07.117Z,13.98
2023-01-28T05:33:55.392Z,7.15
2023-01-28T05:36:41.276Z,8.30
2023-01-28T05:39:26.531Z,8.27
2023-01-28T05:42:11.910Z,12.95
2023-01-28T05:44:57.254Z,5.88
2023-01-28T05:47:44.798Z,6.85
2023-01-28T05:50:30.778Z,6.65
2023-01-28T05:53:16.393Z,5.68
2023-01-28T05:56:01.542Z,6.35
2023-01-28T05:58:46.897Z,7.45
2023-01-28T06:01:32.358Z,4.90
2023-01-28T06:04:20.149Z,6.13
2023-01-28T06:07:05.210Z,6.38
2023-01-28T06:09:50.674Z,6.45
2023-01-28T06:12:36.180Z,7.18
2023-01-28T06:15:21.948Z,5.85
2023-01-28T06:18:07.097Z,7.18
2023-01-28T06:20:52.480Z,5.70
2023-01-28T06:23:37.810Z,7.60
2023-01-28T06:26:23.275Z,5.78
2023-01-28T06:29:09.146Z,5.38
2023-01-28T06:31:54.617Z,6.50
2023-01-28T06:34:40.317Z,5.30
2023-01-28T06:37:26.361Z,5.32
2023-01-28T06:40:12.150Z,3.53
2023-01-28T06:42:57.361Z,4.53
2023-01-28T06:45:42.649Z,4.50
2023-01-28T06:48:28.211Z,4.50
2023-01-28T06:51:13.568Z,4.75
2023-01-28T06:53:58.893Z,5.78
2023-01-28T06:56:44.320Z,6.28
2023-01-28T06:59:29.693Z,3.88
2023-01-28T07:02:15.182Z,4.93
2023-01-28T07:05:00.676Z,4.53
2023-01-28T07:07:46.546Z,5.25
2023-01-28T07:10:31.475Z,5.80
2023-01-28T07:13:16.897Z,4.00
2023-01-28T07:16:03.969Z,4.47
2023-01-28T07:18:49.566Z,5.30
2023-01-28T07:21:34.706Z,3.97
2023-01-28T07:24:19.963Z,5.53
2023-01-28T07:27:05.150Z,4.65
2023-01-28T07:29:50.396Z,4.10
2023-01-28T07:32:35.582Z,6.95
2023-01-28T07:35:21.322Z,5.13
2023-01-28T07:38:06.537Z,4.00
2023-01-28T07:40:51.971Z,3.75
2023-01-28T07:43:37.389Z,8.02
2023-01-28T07:46:22.645Z,3.70
2023-01-28T07:49:08.087Z,3.72
2023-01-28T07:51:53.284Z,2.42
2023-01-28T07:54:38.527Z,3.42
2023-01-28T07:57:26.834Z,2.63
2023-01-28T08:00:14.681Z,2.83
2023-01-28T08:03:02.445Z,3.92
2023-01-28T08:05:50.026Z,3.97
2023-01-28T08:08:35.374Z,4.72
2023-01-28T08:11:21.091Z,4.13
2023-01-28T08:14:06.854Z,3.88
2023-01-28T08:16:52.190Z,3.30
2023-01-28T08:19:37.540Z,3.53
2023-01-28T08:22:26.565Z,3.50
2023-01-28T08:25:12.096Z,4.82
2023-01-28T08:27:57.530Z,5.50
2023-01-28T08:30:43.139Z,5.50
2023-01-28T08:33:28.368Z,4.15
2023-01-28T08:36:13.854Z,5.25
2023-01-28T08:38:59.047Z,4.90
2023-01-28T08:41:44.432Z,4.35
2023-01-28T08:44:29.624Z,6.93
2023-01-28T08:47:15.280Z,4.15
2023-01-28T08:50:00.646Z,3.72
2023-01-28T08:52:49.162Z,6.35
2023-01-28T08:55:36.237Z,6.20
2023-01-28T08:58:21.727Z,5.03
2023-01-28T09:01:07.276Z,7.25
2023-01-28T09:03:53.108Z,5.50
2023-01-28T09:06:38.674Z,5.85
2023-01-28T09:09:24.061Z,5.43
2023-01-28T09:12:11.080Z,5.53
2023-01-28T09:14:57.452Z,5.38
2023-01-28T09:17:42.749Z,4.13
2023-01-28T09:20:28.313Z,4.07
2023-01-28T09:23:14.471Z,5.68
2023-01-28T09:26:01.196Z,3.65
2023-01-28T09:28:47.793Z,3.47
2023-01-28T09:31:33.198Z,3.20
2023-01-28T09:34:18.541Z,6.28
2023-01-28T09:37:03.782Z,6.95
2023-01-28T09:39:49.165Z,5.72
2023-01-28T09:42:57.227Z,7.45
2023-01-28T09:45:50.913Z,4.55
2023-01-28T09:48:41.658Z,3.95
2023-01-28T09:51:30.091Z,3.38
2023-01-28T09:54:45.910Z,5.63
2023-01-28T09:57:47.502Z,5.57
2023-01-28T10:00:58.958Z,5.53
2023-01-28T10:03:54.543Z,3.60
2023-01-28T10:07:16.403Z,3.47
2023-01-28T10:10:19.665Z,3.58
2023-01-28T10:13:37.785Z,3.70
2023-01-28T10:16:31.221Z,7.78
2023-01-28T10:19:23.331Z,3.55
2023-01-28T10:22:22.176Z,6.28
2023-01-28T10:25:21.864Z,2.83
2023-01-28T10:28:18.890Z,2.70
2023-01-28T10:31:12.392Z,4.03
2023-01-28T10:33:58.297Z,4.10
2023-01-28T10:36:43.602Z,5.35
2023-01-28T10:39:30.034Z,4.00
2023-01-28T10:42:20.820Z,4.88
2023-01-28T10:45:20.561Z,4.35
2023-01-28T10:48:24.051Z,4.93
2023-01-28T10:51:09.295Z,7.15
2023-01-28T10:53:54.668Z,8.30
2023-01-28T10:56:43.493Z,4.95
2023-01-28T10:59:36.489Z,4.65
2023-01-28T11:05:21.024Z,8.55
2023-01-28T11:08:17.761Z,3.58
2023-01-28T11:11:13.271Z,3.53
2023-01-28T11:13:58.552Z,5.88
2023-01-28T11:16:43.961Z,4.22
2023-01-28T11:19:35.075Z,3.67
2023-01-28T11:22:32.848Z,3.70
2023-01-28T11:25:35.609Z,4.45
2023-01-28T11:28:23.003Z,5.07
2023-01-28T11:31:12.543Z,4.53
2023-01-28T11:34:04.960Z,4.57
2023-01-28T11:37:02.577Z,4.90
2023-01-28T11:39:47.686Z,5.32
2023-01-28T11:42:33.000Z,7.35
2023-01-28T11:46:01.307Z,6.22
2023-01-28T11:49:08.367Z,5.75
2023-01-28T11:52:14.623Z,5.85
2023-01-28T11:55:23.404Z,4.65
2023-01-28T11:58:27.631Z,7.68
2023-01-28T12:01:21.848Z,7.65
2023-01-28T12:04:09.744Z,9.27
2023-01-28T12:07:12.490Z,4.82
2023-01-28T12:10:17.027Z,7.65
2023-01-28T12:13:26.326Z,6.82
2023-01-28T12:16:36.620Z,4.65
2023-01-28T12:19:27.729Z,4.70
2023-01-28T12:22:22.462Z,5.50
2023-01-28T12:25:22.375Z,4.65
2023-01-28T12:28:42.491Z,8.23
2023-01-28T12:32:13.239Z,6.13
2023-01-28T12:35:21.137Z,10.40
2023-01-28T12:38:16.913Z,9.27
2023-01-28T12:41:14.251Z,5.90
2023-01-28T12:44:11.884Z,5.55
2023-01-28T12:47:04.363Z,10.23
2023-01-28T12:50:02.458Z,9.38
2023-01-28T12:52:55.407Z,8.07
2023-01-28T12:55:47.535Z,5.80
2023-01-28T12:58:37.601Z,5.63
2023-01-28T13:01:42.989Z,4.00
2023-01-28T13:05:02.127Z,9.98
2023-01-28T13:08:05.993Z,6.72
2023-01-28T13:10:52.778Z,7.43
2023-01-28T13:13:42.743Z,5.88
2023-01-28T13:16:36.945Z,5.45
2023-01-28T13:19:25.863Z,10.50
2023-01-28T13:22:27.996Z,5.15
2023-01-28T13:25:27.095Z,9.90
2023-01-28T13:28:28.411Z,6.20
2023-01-28T13:31:18.852Z,8.13
2023-01-28T13:34:06.351Z,5.55
2023-01-28T13:36:53.162Z,6.35
2023-01-28T13:39:38.858Z,5.55
2023-01-28T13:42:26.900Z,9.02
2023-01-28T13:45:18.344Z,5.88
2023-01-28T13:48:19.336Z,7.13
2023-01-28T13:51:10.010Z,6.82
2023-01-28T13:54:16.075Z,8.43
2023-01-28T13:57:01.409Z,4.53
2023-01-28T14:00:21.599Z,6.75
2023-01-28T14:03:45.484Z,6.70
2023-01-28T14:07:01.604Z,8.13
2023-01-28T14:10:12.557Z,5.57
2023-01-28T14:13:05.438Z,6.10
2023-01-28T14:16:32.632Z,9.18
2023-01-28T14:19:23.239Z,8.95
2023-01-28T14:22:09.989Z,8.88
2023-01-28T14:24:57.474Z,4.05
2023-01-28T14:27:48.801Z,8.18
2023-01-28T14:30:53.692Z,6.80
2023-01-28T14:33:40.748Z,5.82
2023-01-28T14:36:25.993Z,6.78
2023-01-28T14:39:17.592Z,5.72
2023-01-28T14:42:03.696Z,5.23
2023-01-28T14:44:56.959Z,6.82
2023-01-28T14:48:10.892Z,4.90
2023-01-28T14:51:12.773Z,4.60
2023-01-28T14:54:37.769Z,5.43
2023-01-28T14:57:45.758Z,6.47
2023-01-28T15:00:33.131Z,7.00
2023-01-28T15:03:24.927Z,6.47
2023-01-28T15:06:17.355Z,6.85
2023-01-28T15:09:09.158Z,8.20
2023-01-28T15:11:58.031Z,7.68
2023-01-28T15:14:44.297Z,7.05
2023-01-28T15:17:29.447Z,5.53
2023-01-28T15:20:23.635Z,4.38
2023-01-28T15:23:09.140Z,3.45
2023-01-28T15:25:55.462Z,6.43
2023-01-28T15:28:43.312Z,7.00
2023-01-28T15:31:34.286Z,5.32
2023-01-28T15:34:20.576Z,4.85
2023-01-28T15:37:05.710Z,5.05
2023-01-28T15:40:08.430Z,10.95
2023-01-28T15:42:55.536Z,6.22
2023-01-28T15:45:48.002Z,5.43
2023-01-28T15:48:35.470Z,6.15
2023-01-28T15:51:25.656Z,5.43
2023-01-28T15:54:11.200Z,8.05
2023-01-28T15:56:57.030Z,5.47
2023-01-28T15:59:43.921Z,5.60
2023-01-28T16:02:32.908Z,8.35
2023-01-28T16:05:49.189Z,6.10
2023-01-28T16:08:39.793Z,7.68
2023-01-28T16:11:32.146Z,6.45
2023-01-28T16:14:30.881Z,7.40
2023-01-28T16:17:19.031Z,6.40
2023-01-28T16:20:09.496Z,5.22
2023-01-28T16:22:57.606Z,8.15
2023-01-28T16:25:42.920Z,9.30
2023-01-28T16:28:29.315Z,7.28
2023-01-28T16:31:15.003Z,4.65
2023-01-28T16:33:59.932Z,7.47
2023-01-28T16:36:45.589Z,8.65
2023-01-28T16:39:30.817Z,4.88
2023-01-28T16:42:16.235Z,8.73
2023-01-28T16:45:01.592Z,6.68
2023-01-28T16:47:48.265Z,10.55
2023-01-28T16:50:34.598Z,5.82
2023-01-28T16:53:29.539Z,5.78
2023-01-28T16:56:30.416Z,5.95
2023-01-28T16:59:23.520Z,6.75
2023-01-28T17:02:13.345Z,5.07
2023-01-28T17:04:58.762Z,5.80
2023-01-28T17:07:44.128Z,7.90
2023-01-28T17:10:29.351Z,4.43
2023-01-28T17:13:14.794Z,6.18
2023-01-28T17:16:04.551Z,5.97
2023-01-28T17:18:51.058Z,6.13
2023-01-28T17:21:36.457Z,5.18
2023-01-28T17:24:21.947Z,7.43
2023-01-28T17:27:07.473Z,7.85
2023-01-28T17:29:53.305Z,9.95
2023-01-28T17:32:38.797Z,7.05
2023-01-28T17:35:24.018Z,5.25
2023-01-28T17:38:09.343Z,5.97
2023-01-28T17:40:54.611Z,5.20
2023-01-28T17:43:40.885Z,8.10
2023-01-28T17:46:26.319Z,6.05
2023-01-28T17:49:13.011Z,7.22
2023-01-28T17:51:58.466Z,7.30
2023-01-28T17:54:43.929Z,5.43
2023-01-28T17:57:29.404Z,6.03
2023-01-28T18:00:15.527Z,7.13
2023-01-28T18:03:00.732Z,6.20
2023-01-28T18:05:58.525Z,6.88
2023-01-28T18:08:44.251Z,6.25
2023-01-28T18:11:30.359Z,5.07
2023-01-28T18:14:15.767Z,6.85
2023-01-28T18:17:01.300Z,6.10
2023-01-28T18:19:46.626Z,7.10
2023-01-28T18:22:32.774Z,6.88
2023-01-28T18:25:19.139Z,4.93
2023-01-28T18:28:05.714Z,8.50
2023-01-28T18:30:52.049Z,6.28
2023-01-28T18:33:37.538Z,5.07
2023-01-28T18:36:23.281Z,7.68
2023-01-28T18:39:12.549Z,7.15
2023-01-28T18:41:58.968Z,7.22
2023-01-28T18:44:44.415Z,9.90
2023-01-28T18:47:29.966Z,3.88
2023-01-28T18:50:15.680Z,6.40
2023-01-28T18:53:00.753Z,6.15
2023-01-28T18:55:46.322Z,6.03
2023-01-28T18:58:32.224Z,6.72
2023-01-28T19:01:17.478Z,6.93
2023-01-28T19:04:03.600Z,5.63
2023-01-28T19:06:50.054Z,5.72
2023-01-28T19:09:35.728Z,5.88
2023-01-28T19:12:22.385Z,6.15
2023-01-28T19:15:08.456Z,5.18
2023-01-28T19:17:53.637Z,6.43
2023-01-28T19:20:39.798Z,6.40
2023-01-28T19:23:25.275Z,7.53
2023-01-28T19:26:10.713Z,6.85
2023-01-28T19:28:56.208Z,12.35
2023-01-28T19:31:41.985Z,7.35
2023-01-28T19:34:27.442Z,7.63
2023-01-28T19:37:13.353Z,8.55
2023-01-28T19:39:58.705Z,6.07
2023-01-28T19:42:44.873Z,6.35
2023-01-28T19:45:29.934Z,10.88
2023-01-28T19:48:15.218Z,5.38
2023-01-28T19:51:07.779Z,7.65
2023-01-28T19:53:54.732Z,5.38
2023-01-28T19:56:40.062Z,8.57
2023-01-28T19:59:25.423Z,6.60
2023-01-28T20:02:10.919Z,7.25
2023-01-28T20:05:00.898Z,5.65
2023-01-28T20:07:46.593Z,5.22
2023-01-28T20:10:32.181Z,7.60
2023-01-28T20:13:17.587Z,5.55
2023-01-28T20:16:08.322Z,4.65
2023-01-28T20:18:59.917Z,4.30
2023-01-28T20:21:46.699Z,6.43
2023-01-28T20:24:32.302Z,6.90
2023-01-28T20:27:17.384Z,4.22
2023-01-28T20:30:03.027Z,6.35
2023-01-28T20:32:48.224Z,6.30
2023-01-28T20:35:33.717Z,7.63
2023-01-28T20:38:19.171Z,5.20
2023-01-28T20:41:10.204Z,8.43
2023-01-28T20:43:56.531Z,6.38
2023-01-28T20:46:41.678Z,8.95
2023-01-28T20:49:28.218Z,9.60
2023-01-28T20:52:13.643Z,7.00
2023-01-28T20:54:59.073Z,6.53
2023-01-28T20:57:45.036Z,6.95
2023-01-28T21:00:30.272Z,6.05
2023-01-28T21:03:15.669Z,7.05
2023-01-28T21:06:01.214Z,8.38
2023-01-28T21:08:46.538Z,5.80
2023-01-28T21:11:32.303Z,6.88
2023-01-28T21:14:17.544Z,6.40
2023-01-28T21:17:03.164Z,7.35
2023-01-28T21:19:48.815Z,5.93
2023-01-28T21:22:34.236Z,7.82
2023-01-28T21:25:20.807Z,6.90
2023-01-28T21:28:06.267Z,7.55
2023-01-28T21:30:51.629Z,9.18
2023-01-28T21:33:38.383Z,14.80
2023-01-28T21:36:25.206Z,7.25
2023-01-28T21:39:10.504Z,7.38
2023-01-28T21:41:55.748Z,5.75
2023-01-28T21:44:41.111Z,8.23
2023-01-28T21:47:26.732Z,6.70
2023-01-28T21:50:12.147Z,7.57
2023-01-28T21:52:57.619Z,8.13
2023-01-28T21:55:46.629Z,8.73
2023-01-28T21:58:53.916Z,5.68
2023-01-28T22:01:39.492Z,6.32
2023-01-28T22:04:32.659Z,7.22
2023-01-28T22:07:19.949Z,6.60
2023-01-28T22:10:05.729Z,5.85
2023-01-28T22:12:50.789Z,7.00
2023-01-28T22:15:36.290Z,8.35
2023-01-28T22:18:21.752Z,6.70
2023-01-28T22:21:09.062Z,7.78
2023-01-28T22:23:54.552Z,10.45
2023-01-28T22:26:40.962Z,11.15
2023-01-28T22:29:26.730Z,8.38
2023-01-28T22:32:11.915Z,8.40
2023-01-28T22:34:58.138Z,6.95
2023-01-28T22:37:43.203Z,8.23
2023-01-28T22:40:28.676Z,7.50
2023-01-28T22:43:14.074Z,7.13
2023-01-28T22:46:00.425Z,6.68
2023-01-28T22:48:46.235Z,9.35
2023-01-28T22:51:34.532Z,10.20
2023-01-28T22:54:19.636Z,7.95
2023-01-28T22:57:04.937Z,6.47
2023-01-28T22:59:59.752Z,8.18
2023-01-28T23:02:45.144Z,6.47
2023-01-28T23:05:30.568Z,7.78
2023-01-28T23:08:16.078Z,6.70
2023-01-28T23:11:02.792Z,7.90
2023-01-28T23:14:06.319Z,7.68
2023-01-28T23:17:10.270Z,7.38
2023-01-28T23:20:14.253Z,7.47
2023-01-28T23:23:18.548Z,7.65
2023-01-28T23:26:06.214Z,8.27
2023-01-28T23:28:52.153Z,11.05
2023-01-28T23:31:49.222Z,9.02
2023-01-28T23:34:37.134Z,6.95
2023-01-28T23:37:22.280Z,8.85
2023-01-28T23:40:08.503Z,6.60
2023-01-28T23:42:55.044Z,7.47
2023-01-28T23:45:40.409Z,7.38
2023-01-28T23:48:26.604Z,7.10
2023-01-28T23:51:11.633Z,6.78
2023-01-28T23:53:57.095Z,11.38
2023-01-28T23:56:42.438Z,6.95
2023-01-28T23:59:27.770Z,8.45
